Startpagina
METAR-TAF:

METAR-TAF

Vliegvelden :

Panama-stad, Panama

breedte: 08-59N, lengte: 079-31W, hoogte: 13 m

Actueel weer

Dit bericht is 42 minuten geleden gemaakt, om 20:00 UTC
Wind 12 kt uit het noordnoordwesten, variërend tussen het westnoordwesten en het noorden
Temperatuur 32°C
Vochtigheid 43%
Druk 1010 hPa
Zicht 10 km of meer
Weinig wolken op 2000 ft

METAR: MPMG 232000Z 33012KT 300V360 9999 FEW020 32/18 Q1010 NOSIG

Tijdstip: 15:42 (20:42 UTC)

Verwachting

Dit bericht is 3 uur en het 42 minuten geleden gemaakt, om 17:00 UTC
Verwachting geldig van 23 om 18 UTC tot 24 om 06 UTC
Wind 6 kt uit het noordnoordwesten
Zicht 10 km of meer
Weinig wolken op 2000 ft
Wijzigt naar
van 23 om 19 UTC tot 23 om 23 UTC
Wind 18 kt uit het noorden
Wijzigt naar
van 24 om 02 UTC tot 24 om 06 UTC
Zicht 10 km of meer
geen wolken onder 1500 m en geen cumulonimbus

TAF: MPMG 231700Z 2318/2406 33006KT 9999 FEW020 BECMG 2319/2323 35018KT BECMG 2402/2406 CAVOK

Waarnemingen en weersverwachtingen van meer dan 4000 vliegvelden (METAR en TAF).

De beschikbare stations zijn de gele en rode punten op de kaart.

Ga met uw muis naar het station om de naam te zien.

Klik dan om waarnemingen en weersverwachtingen te zien.

kaart wijzigen: klik op de groene knoppen met een zwart kruis om in te zoomen, op de groene knop met een streepje om uit te zoomen of op de groene pijlen voor aangrenzende kaarten.


METAR-TAF: